AMX255 MMGL-MMMX
Flight info
| Callsign | AMX255 |
|---|---|
| Flight time | 0h 50m |
| Altitude | 37000 |
| Route | EMIRI1B EMIRI UT119 ESPOS ESPOS3A |
| Aircraft | B38M/M-SDE1FGHILORVWXY/HB1 |
Departure
| Time | 2026-05-04 01:20 |
|---|---|
| Airport | Guadalajara International Airport (MMGL) |
Arrival
| Time | 2026-05-04 02:11 |
|---|---|
| Airport | Mexico City Benito Juárez International Airport (MMMX) |
| Time | Latitude | Longitude | Altitude | Speed | Heading |
|---|---|---|---|---|---|
| 2026-05-04 00:58 | 20.52372 | -103.29901 | 5031 ft | 0 kts | 19° |
| 2026-05-04 01:09 | 20.52364 | -103.29904 | 5028 ft | 2 kts | 19° |
| 2026-05-04 01:10 | 20.52349 | -103.29910 | 5030 ft | 2 kts | 19° |
| 2026-05-04 01:10 | 20.52334 | -103.29915 | 5031 ft | 2 kts | 19° |
| 2026-05-04 01:10 | 20.52318 | -103.29921 | 5027 ft | 2 kts | 34° |
| 2026-05-04 01:10 | 20.52318 | -103.29935 | 5027 ft | 2 kts | 124° |
| 2026-05-04 01:11 | 20.52324 | -103.29944 | 5029 ft | 0 kts | 110° |
| 2026-05-04 01:16 | 20.52321 | -103.29937 | 5028 ft | 5 kts | 110° |
| 2026-05-04 01:17 | 20.52285 | -103.29855 | 5029 ft | 16 kts | 117° |
| 2026-05-04 01:17 | 20.52229 | -103.29742 | 5032 ft | 18 kts | 119° |
| 2026-05-04 01:17 | 20.52180 | -103.29619 | 5027 ft | 18 kts | 109° |
| 2026-05-04 01:17 | 20.52138 | -103.29493 | 5030 ft | 16 kts | 111° |
| 2026-05-04 01:18 | 20.52069 | -103.29464 | 5032 ft | 11 kts | 201° |
| 2026-05-04 01:18 | 20.51994 | -103.29500 | 5032 ft | 12 kts | 204° |
| 2026-05-04 01:18 | 20.51916 | -103.29537 | 5032 ft | 13 kts | 204° |
| 2026-05-04 01:18 | 20.51835 | -103.29575 | 5028 ft | 13 kts | 208° |
| 2026-05-04 01:19 | 20.51826 | -103.29629 | 5029 ft | 7 kts | 296° |
| 2026-05-04 01:19 | 20.51922 | -103.29856 | 5027 ft | 67 kts | 294° |
| 2026-05-04 01:19 | 20.52197 | -103.30512 | 5030 ft | 125 kts | 294° |
| 2026-05-04 01:19 | 20.52621 | -103.31523 | 5056 ft | 167 kts | 294° |
| 2026-05-04 01:20 | 20.53104 | -103.32698 | 5615 ft | 180 kts | 292° |
| 2026-05-04 01:20 | 20.53620 | -103.33992 | 6070 ft | 198 kts | 293° |
| 2026-05-04 01:20 | 20.54178 | -103.35397 | 6542 ft | 212 kts | 292° |
| 2026-05-04 01:20 | 20.54786 | -103.36906 | 7121 ft | 230 kts | 292° |
| 2026-05-04 01:21 | 20.55424 | -103.38491 | 7967 ft | 234 kts | 292° |
| 2026-05-04 01:21 | 20.56079 | -103.40098 | 8850 ft | 238 kts | 292° |
| 2026-05-04 01:21 | 20.56756 | -103.41732 | 9721 ft | 242 kts | 292° |
| 2026-05-04 01:21 | 20.57419 | -103.43390 | 10453 ft | 252 kts | 291° |
| 2026-05-04 01:22 | 20.58095 | -103.45107 | 11346 ft | 249 kts | 291° |
| 2026-05-04 01:22 | 20.58759 | -103.46847 | 12110 ft | 258 kts | 287° |
| 2026-05-04 01:22 | 20.58926 | -103.48794 | 12563 ft | 275 kts | 259° |
| 2026-05-04 01:22 | 20.58140 | -103.50703 | 13004 ft | 294 kts | 232° |
| 2026-05-04 01:23 | 20.56478 | -103.52071 | 13413 ft | 315 kts | 204° |
| 2026-05-04 01:23 | 20.54264 | -103.52483 | 13809 ft | 337 kts | 176° |
| 2026-05-04 01:23 | 20.51937 | -103.51835 | 14196 ft | 354 kts | 163° |
| 2026-05-04 01:23 | 20.49485 | -103.51495 | 14642 ft | 360 kts | 188° |
| 2026-05-04 01:24 | 20.47136 | -103.52384 | 15227 ft | 363 kts | 213° |
| 2026-05-04 01:24 | 20.45009 | -103.53826 | 15754 ft | 369 kts | 206° |
| 2026-05-04 01:24 | 20.42544 | -103.54626 | 16389 ft | 374 kts | 188° |
| 2026-05-04 01:24 | 20.39931 | -103.54627 | 16967 ft | 380 kts | 172° |
| 2026-05-04 01:25 | 20.37384 | -103.53830 | 17581 ft | 384 kts | 155° |
| 2026-05-04 01:25 | 20.35137 | -103.52295 | 18174 ft | 387 kts | 137° |
| 2026-05-04 01:25 | 20.33392 | -103.50109 | 18674 ft | 390 kts | 121° |
| 2026-05-04 01:25 | 20.31985 | -103.47620 | 19126 ft | 395 kts | 119° |
| 2026-05-04 01:26 | 20.30624 | -103.45065 | 19585 ft | 399 kts | 118° |
| 2026-05-04 01:26 | 20.29288 | -103.42457 | 20048 ft | 403 kts | 117° |
| 2026-05-04 01:26 | 20.27956 | -103.39810 | 20490 ft | 407 kts | 117° |
| 2026-05-04 01:26 | 20.26626 | -103.37137 | 20986 ft | 410 kts | 116° |
| 2026-05-04 01:27 | 20.25310 | -103.34474 | 21433 ft | 413 kts | 116° |
| 2026-05-04 01:27 | 20.23968 | -103.31754 | 21867 ft | 417 kts | 116° |
| 2026-05-04 01:27 | 20.22616 | -103.29011 | 22305 ft | 420 kts | 116° |
| 2026-05-04 01:27 | 20.21246 | -103.26233 | 22743 ft | 423 kts | 116° |
| 2026-05-04 01:28 | 20.19870 | -103.23445 | 23149 ft | 427 kts | 116° |
| 2026-05-04 01:28 | 20.18483 | -103.20635 | 23535 ft | 431 kts | 116° |
| 2026-05-04 01:28 | 20.17086 | -103.17806 | 23871 ft | 434 kts | 116° |
| 2026-05-04 01:28 | 20.15676 | -103.14953 | 24259 ft | 436 kts | 116° |
| 2026-05-04 01:29 | 20.14258 | -103.12085 | 24628 ft | 439 kts | 116° |
| 2026-05-04 01:29 | 20.12759 | -103.09291 | 24968 ft | 442 kts | 126° |
| 2026-05-04 01:29 | 20.10640 | -103.06911 | 25365 ft | 445 kts | 141° |
| 2026-05-04 01:29 | 20.08177 | -103.04885 | 25698 ft | 448 kts | 143° |
| 2026-05-04 01:30 | 20.05681 | -103.02877 | 26053 ft | 451 kts | 143° |
| 2026-05-04 01:30 | 20.03156 | -103.00877 | 26427 ft | 453 kts | 143° |
| 2026-05-04 01:30 | 20.00611 | -102.98881 | 26783 ft | 456 kts | 144° |
| 2026-05-04 01:30 | 19.98046 | -102.96876 | 27131 ft | 459 kts | 142° |
| 2026-05-04 01:31 | 19.95740 | -102.94525 | 27465 ft | 460 kts | 127° |
| 2026-05-04 01:31 | 19.94096 | -102.91611 | 27803 ft | 461 kts | 112° |
| 2026-05-04 01:31 | 19.92826 | -102.88475 | 28052 ft | 464 kts | 111° |
| 2026-05-04 01:31 | 19.91572 | -102.85306 | 28392 ft | 466 kts | 111° |
| 2026-05-04 01:32 | 19.90349 | -102.82156 | 28712 ft | 469 kts | 111° |
| 2026-05-04 01:32 | 19.89117 | -102.78942 | 29037 ft | 471 kts | 110° |
| 2026-05-04 01:32 | 19.87882 | -102.75708 | 29353 ft | 474 kts | 110° |
| 2026-05-04 01:32 | 19.86642 | -102.72456 | 29669 ft | 476 kts | 110° |
| 2026-05-04 01:33 | 19.85396 | -102.69188 | 29972 ft | 479 kts | 110° |
| 2026-05-04 01:33 | 19.84140 | -102.65897 | 30241 ft | 481 kts | 110° |
| 2026-05-04 01:33 | 19.82881 | -102.62597 | 30508 ft | 483 kts | 110° |
| 2026-05-04 01:33 | 19.81613 | -102.59280 | 30760 ft | 486 kts | 110° |
| 2026-05-04 01:34 | 19.80341 | -102.55952 | 31028 ft | 488 kts | 110° |
| 2026-05-04 01:34 | 19.79056 | -102.52594 | 31277 ft | 491 kts | 111° |
| 2026-05-04 01:34 | 19.77770 | -102.49232 | 31531 ft | 493 kts | 110° |
| 2026-05-04 01:34 | 19.76476 | -102.45856 | 31800 ft | 495 kts | 110° |
| 2026-05-04 01:35 | 19.75176 | -102.42463 | 32056 ft | 497 kts | 111° |
| 2026-05-04 01:35 | 19.73868 | -102.39054 | 32298 ft | 500 kts | 111° |
| 2026-05-04 01:35 | 19.72555 | -102.35631 | 32551 ft | 502 kts | 111° |
| 2026-05-04 01:35 | 19.71235 | -102.32196 | 32795 ft | 504 kts | 111° |
| 2026-05-04 01:36 | 19.69909 | -102.28746 | 33112 ft | 504 kts | 111° |
| 2026-05-04 01:36 | 19.68583 | -102.25296 | 33455 ft | 504 kts | 111° |
| 2026-05-04 01:36 | 19.67259 | -102.21856 | 33818 ft | 504 kts | 111° |
| 2026-05-04 01:36 | 19.65933 | -102.18411 | 34173 ft | 504 kts | 111° |
| 2026-05-04 01:37 | 19.64610 | -102.14979 | 34519 ft | 503 kts | 111° |
| 2026-05-04 01:37 | 19.63288 | -102.11552 | 34882 ft | 501 kts | 111° |
| 2026-05-04 01:37 | 19.61981 | -102.08162 | 35090 ft | 502 kts | 111° |
| 2026-05-04 01:38 | 19.59346 | -102.01337 | 35124 ft | 497 kts | 111° |
| 2026-05-04 01:38 | 19.56725 | -101.94561 | 35130 ft | 497 kts | 111° |
| 2026-05-04 01:39 | 19.54101 | -101.87783 | 35107 ft | 496 kts | 111° |
| 2026-05-04 01:39 | 19.51498 | -101.81069 | 35082 ft | 496 kts | 111° |
| 2026-05-04 01:40 | 19.48872 | -101.74305 | 35038 ft | 495 kts | 111° |
| 2026-05-04 01:40 | 19.46250 | -101.67559 | 34990 ft | 494 kts | 111° |
| 2026-05-04 01:41 | 19.43632 | -101.60831 | 34965 ft | 493 kts | 111° |
| 2026-05-04 01:41 | 19.41015 | -101.54114 | 34960 ft | 493 kts | 111° |
| 2026-05-04 01:42 | 19.38397 | -101.47404 | 34949 ft | 492 kts | 111° |
| 2026-05-04 01:42 | 19.35780 | -101.40706 | 34937 ft | 492 kts | 111° |
| 2026-05-04 01:43 | 19.33158 | -101.34003 | 34918 ft | 492 kts | 111° |
| 2026-05-04 01:43 | 19.30557 | -101.27364 | 34897 ft | 491 kts | 112° |
| 2026-05-04 01:44 | 19.27942 | -101.20694 | 34864 ft | 490 kts | 111° |
| 2026-05-04 01:44 | 19.25327 | -101.14031 | 34853 ft | 490 kts | 111° |
| 2026-05-04 01:45 | 19.22704 | -101.07360 | 34839 ft | 490 kts | 112° |
| 2026-05-04 01:45 | 19.18789 | -100.97418 | 34808 ft | 489 kts | 112° |
| 2026-05-04 01:46 | 19.16170 | -100.90774 | 34794 ft | 489 kts | 112° |
| 2026-05-04 01:46 | 19.13548 | -100.84135 | 34780 ft | 488 kts | 112° |
| 2026-05-04 01:47 | 19.10929 | -100.77507 | 34768 ft | 488 kts | 112° |
| 2026-05-04 01:47 | 19.08307 | -100.70884 | 34762 ft | 487 kts | 112° |
| 2026-05-04 01:48 | 19.05705 | -100.64316 | 34763 ft | 488 kts | 112° |
| 2026-05-04 01:48 | 19.03080 | -100.57700 | 34763 ft | 488 kts | 112° |
| 2026-05-04 01:49 | 19.00456 | -100.51095 | 34758 ft | 488 kts | 112° |
| 2026-05-04 01:49 | 18.97824 | -100.44475 | 34770 ft | 488 kts | 112° |
| 2026-05-04 01:50 | 18.95198 | -100.37879 | 34776 ft | 486 kts | 112° |
| 2026-05-04 01:50 | 18.92576 | -100.31302 | 34780 ft | 485 kts | 112° |
| 2026-05-04 01:51 | 18.89954 | -100.24732 | 34800 ft | 484 kts | 112° |
| 2026-05-04 01:51 | 18.87780 | -100.19298 | 34807 ft | 483 kts | 112° |
| 2026-05-04 01:52 | 18.84746 | -100.11720 | 34372 ft | 478 kts | 113° |
| 2026-05-04 01:52 | 18.83871 | -100.09536 | 33872 ft | 479 kts | 112° |
| 2026-05-04 01:52 | 18.82567 | -100.06279 | 32916 ft | 485 kts | 112° |
| 2026-05-04 01:53 | 18.81247 | -100.02990 | 32034 ft | 488 kts | 112° |
| 2026-05-04 01:53 | 18.79923 | -99.99691 | 31264 ft | 489 kts | 111° |
| 2026-05-04 01:53 | 18.78594 | -99.96382 | 30594 ft | 488 kts | 111° |
| 2026-05-04 01:53 | 18.77273 | -99.93098 | 29986 ft | 485 kts | 110° |
| 2026-05-04 01:54 | 18.75956 | -99.89823 | 29267 ft | 484 kts | 110° |
| 2026-05-04 01:54 | 18.74838 | -99.86504 | 28505 ft | 479 kts | 99° |
| 2026-05-04 01:54 | 18.74496 | -99.83053 | 27937 ft | 468 kts | 86° |
| 2026-05-04 01:54 | 18.74910 | -99.79706 | 27473 ft | 455 kts | 72° |
| 2026-05-04 01:55 | 18.75937 | -99.76586 | 26931 ft | 448 kts | 66° |
| 2026-05-04 01:55 | 18.77091 | -99.73537 | 26171 ft | 448 kts | 65° |
| 2026-05-04 01:55 | 18.78306 | -99.70525 | 25197 ft | 455 kts | 64° |
| 2026-05-04 01:55 | 18.79580 | -99.67444 | 24246 ft | 460 kts | 64° |
| 2026-05-04 01:56 | 18.80880 | -99.64343 | 23335 ft | 451 kts | 64° |
| 2026-05-04 01:56 | 18.82128 | -99.61386 | 22351 ft | 443 kts | 64° |
| 2026-05-04 01:56 | 18.83374 | -99.58444 | 21409 ft | 435 kts | 64° |
| 2026-05-04 01:56 | 18.84598 | -99.55554 | 20533 ft | 427 kts | 64° |
| 2026-05-04 01:57 | 18.85793 | -99.52733 | 19924 ft | 414 kts | 64° |
| 2026-05-04 01:57 | 18.86947 | -99.50007 | 19484 ft | 398 kts | 65° |
| 2026-05-04 01:57 | 18.88045 | -99.47411 | 19297 ft | 377 kts | 65° |
| 2026-05-04 01:57 | 18.89090 | -99.44940 | 19114 ft | 358 kts | 65° |
| 2026-05-04 01:58 | 18.90069 | -99.42623 | 18943 ft | 341 kts | 65° |
| 2026-05-04 01:58 | 18.91020 | -99.40374 | 18649 ft | 330 kts | 65° |
| 2026-05-04 01:58 | 18.91940 | -99.38195 | 18399 ft | 318 kts | 64° |
| 2026-05-04 01:58 | 18.92830 | -99.36088 | 18182 ft | 312 kts | 64° |
| 2026-05-04 01:59 | 18.93785 | -99.34050 | 17637 ft | 312 kts | 55° |
| 2026-05-04 01:59 | 18.95123 | -99.32246 | 17045 ft | 311 kts | 50° |
| 2026-05-04 01:59 | 18.96452 | -99.30472 | 16592 ft | 305 kts | 51° |
| 2026-05-04 01:59 | 18.97743 | -99.28729 | 16208 ft | 297 kts | 51° |
| 2026-05-04 02:00 | 18.98999 | -99.27019 | 15832 ft | 293 kts | 51° |
| 2026-05-04 02:00 | 19.00250 | -99.25309 | 15474 ft | 293 kts | 51° |
| 2026-05-04 02:00 | 19.01478 | -99.23624 | 15314 ft | 287 kts | 51° |
| 2026-05-04 02:00 | 19.02684 | -99.21969 | 15135 ft | 283 kts | 52° |
| 2026-05-04 02:01 | 19.03883 | -99.20323 | 14969 ft | 281 kts | 52° |
| 2026-05-04 02:01 | 19.05076 | -99.18683 | 14812 ft | 281 kts | 52° |
| 2026-05-04 02:01 | 19.06268 | -99.17045 | 14661 ft | 281 kts | 52° |
| 2026-05-04 02:01 | 19.07459 | -99.15407 | 14500 ft | 281 kts | 52° |
| 2026-05-04 02:02 | 19.08650 | -99.13770 | 14368 ft | 281 kts | 52° |
| 2026-05-04 02:02 | 19.09840 | -99.12131 | 14210 ft | 280 kts | 52° |
| 2026-05-04 02:02 | 19.11013 | -99.10518 | 14103 ft | 273 kts | 52° |
| 2026-05-04 02:02 | 19.12163 | -99.08935 | 13999 ft | 270 kts | 52° |
| 2026-05-04 02:03 | 19.13286 | -99.07390 | 13874 ft | 268 kts | 52° |
| 2026-05-04 02:03 | 19.14416 | -99.05832 | 13750 ft | 265 kts | 52° |
| 2026-05-04 02:03 | 19.15591 | -99.04359 | 13541 ft | 260 kts | 39° |
| 2026-05-04 02:03 | 19.17160 | -99.03484 | 13291 ft | 254 kts | 12° |
| 2026-05-04 02:04 | 19.18888 | -99.03454 | 13083 ft | 247 kts | 346° |
| 2026-05-04 02:04 | 19.20440 | -99.04190 | 12898 ft | 246 kts | 322° |
| 2026-05-04 02:04 | 19.21760 | -99.05348 | 12734 ft | 248 kts | 318° |
| 2026-05-04 02:04 | 19.23054 | -99.06551 | 12508 ft | 247 kts | 317° |
| 2026-05-04 02:05 | 19.24310 | -99.07796 | 12292 ft | 247 kts | 310° |
| 2026-05-04 02:05 | 19.25372 | -99.09229 | 12032 ft | 248 kts | 306° |
| 2026-05-04 02:05 | 19.26412 | -99.10683 | 11779 ft | 248 kts | 306° |
| 2026-05-04 02:05 | 19.27459 | -99.12132 | 11520 ft | 246 kts | 306° |
| 2026-05-04 02:06 | 19.28488 | -99.13547 | 11298 ft | 239 kts | 307° |
| 2026-05-04 02:06 | 19.29496 | -99.14927 | 11020 ft | 234 kts | 307° |
| 2026-05-04 02:06 | 19.30484 | -99.16277 | 10748 ft | 229 kts | 306° |
| 2026-05-04 02:06 | 19.31423 | -99.17555 | 10485 ft | 208 kts | 307° |
| 2026-05-04 02:07 | 19.32381 | -99.18594 | 10226 ft | 196 kts | 320° |
| 2026-05-04 02:07 | 19.33567 | -99.19277 | 9973 ft | 194 kts | 341° |
| 2026-05-04 02:07 | 19.34903 | -99.19444 | 9723 ft | 194 kts | 4° |
| 2026-05-04 02:07 | 19.36185 | -99.19036 | 9535 ft | 194 kts | 32° |
| 2026-05-04 02:08 | 19.37230 | -99.18142 | 9463 ft | 192 kts | 46° |
| 2026-05-04 02:08 | 19.38039 | -99.17028 | 9396 ft | 189 kts | 58° |
| 2026-05-04 02:08 | 19.38659 | -99.15834 | 9311 ft | 179 kts | 60° |
| 2026-05-04 02:08 | 19.39265 | -99.14716 | 9213 ft | 171 kts | 58° |
| 2026-05-04 02:09 | 19.39865 | -99.13657 | 9006 ft | 164 kts | 57° |
| 2026-05-04 02:09 | 19.40439 | -99.12631 | 8743 ft | 160 kts | 58° |
| 2026-05-04 02:09 | 19.41006 | -99.11614 | 8341 ft | 161 kts | 58° |
| 2026-05-04 02:09 | 19.41590 | -99.10574 | 7937 ft | 164 kts | 60° |
| 2026-05-04 02:10 | 19.42156 | -99.09548 | 7666 ft | 166 kts | 58° |
| 2026-05-04 02:10 | 19.42752 | -99.08499 | 7406 ft | 161 kts | 59° |
| 2026-05-04 02:10 | 19.43277 | -99.07554 | 7306 ft | 133 kts | 59° |
| 2026-05-04 02:10 | 19.43641 | -99.06910 | 7305 ft | 65 kts | 59° |
| 2026-05-04 02:11 | 19.43775 | -99.06662 | 7305 ft | 19 kts | 69° |
| 2026-05-04 02:11 | 19.43746 | -99.06601 | 7305 ft | 1 kts | 177° |
| 2026-05-04 02:11 | 19.43693 | -99.06623 | 7305 ft | 11 kts | 206° |
| 2026-05-04 02:11 | 19.43617 | -99.06664 | 7305 ft | 12 kts | 208° |
| 2026-05-04 02:12 | 19.43552 | -99.06701 | 7305 ft | 10 kts | 207° |
| 2026-05-04 02:12 | 19.43458 | -99.06757 | 7305 ft | 20 kts | 217° |
| 2026-05-04 02:12 | 19.43398 | -99.06870 | 7305 ft | 16 kts | 242° |
| 2026-05-04 02:12 | 19.43344 | -99.06966 | 7305 ft | 14 kts | 238° |
| 2026-05-04 02:13 | 19.43288 | -99.07065 | 7305 ft | 18 kts | 240° |
| 2026-05-04 02:13 | 19.43258 | -99.07191 | 7305 ft | 17 kts | 263° |
| 2026-05-04 02:13 | 19.43223 | -99.07303 | 7305 ft | 16 kts | 240° |
| 2026-05-04 02:13 | 19.43162 | -99.07412 | 7305 ft | 18 kts | 239° |
| 2026-05-04 02:14 | 19.43099 | -99.07523 | 7305 ft | 17 kts | 239° |
| 2026-05-04 02:14 | 19.43026 | -99.07652 | 7305 ft | 23 kts | 239° |
| 2026-05-04 02:14 | 19.42959 | -99.07756 | 7305 ft | 11 kts | 227° |
| 2026-05-04 02:14 | 19.42896 | -99.07814 | 7305 ft | 17 kts | 212° |
| 2026-05-04 02:15 | 19.42792 | -99.07875 | 7305 ft | 16 kts | 197° |
| 2026-05-04 02:15 | 19.42689 | -99.07841 | 7305 ft | 17 kts | 149° |
| 2026-05-04 02:15 | 19.42586 | -99.07776 | 7305 ft | 16 kts | 149° |
| 2026-05-04 02:15 | 19.42507 | -99.07768 | 7305 ft | 9 kts | 212° |
| 2026-05-04 02:16 | 19.42466 | -99.07798 | 7305 ft | 5 kts | 214° |
| 2026-05-04 02:16 | 19.42454 | -99.07807 | 7305 ft | 0 kts | 214° |